Decoded Metar for FEFF (BANGUI in CENTRAL AFRICAN REP.) (IATA:BGF) | Meteo·Mobile Aviation Weather
aviador You're here:

FEFF Decoded Metar

BANGUI in CENTRAL AFRICAN REP.
Report Time2019-05-21 12:00:00
UTC Time2019-05-21 14:32:44
Flight Rules Old
Wind220° at 06 kt
W.Decomp.*RWY 17: 3.9 kt HW 4.5 kt RCW
Visibility9999 m
Phenomena:N/A
Clouds:Broken 023 Hf
Expected CloudBase > 4,800 ft AGL from Temp-Dew spread
Ceiling2,300 ft
Temp33°C (ISA +20)
Dew Point21°C (49% RH)
Heat Index36.0°C
QNH1009 hPa
Density Alt3,983 ft
Elevation1,201 ft
Report Wrong Elevation
Raw Report
FEFF 211200Z 22006KT 9999 BKN023 33/21 Q1009 NOSIG=

Extra information for FEFF:More info

Metar Taf Metar & Taf Last 4 Metars F.Rules Stats Wind Profile Meteogram Temp Stats Airport Information Weather charts Add Link Nearby VenuesMetar ALERT Operation Metar Decoded Social comments